Terminal Aerodrome Forecast
Issued by NWS Shreveport, LA

Home | Current Version | Previous Version | Text Only | Print | Product List | Glossary On
Versions: 1 2 3 4 5 6 7 8 9 10 11 12 13 14
000
FTUS44 KSHV 261700 RRA
TAFGGG
TAF
KGGG 261753Z 2618/2718 14009KT P6SM SCT013 OVC035
      TEMPO 2619/2621 BKN015
     FM262100 14009KT P6SM OVC015
     FM270100 15007KT 6SM BR OVC007
     FM270700 15006KT 2SM BR OVC005
     FM270900 VRB04KT 2SM BR VCSH OVC004
      TEMPO 2709/2713 1SM -SHRA BR=

USA.gov is the U.S. government's official web portal to all federal, state and local government web resources and services.